sensor_id;sensor_type;location;lat;lon;timestamp;temperature;humidity
480;DHT22;226;48.606;9.096;2023-07-09T06:34:20;23.10;57.00
480;DHT22;226;48.606;9.096;2023-07-09T06:36:49;23.10;59.80
480;DHT22;226;48.606;9.096;2023-07-09T06:39:18;23.30;56.50
480;DHT22;226;48.606;9.096;2023-07-09T06:41:47;23.60;56.30
480;DHT22;226;48.606;9.096;2023-07-09T06:44:16;23.60;56.10
480;DHT22;226;48.606;9.096;2023-07-09T06:46:44;23.70;55.30
480;DHT22;226;48.606;9.096;2023-07-09T06:49:13;23.80;55.20
480;DHT22;226;48.606;9.096;2023-07-09T06:51:42;23.90;54.20
480;DHT22;226;48.606;9.096;2023-07-09T06:54:11;24.10;53.70
480;DHT22;226;48.606;9.096;2023-07-09T06:56:42;24.20;53.20
480;DHT22;226;48.606;9.096;2023-07-09T06:59:10;24.30;52.60
480;DHT22;226;48.606;9.096;2023-07-09T07:01:38;24.30;51.80
480;DHT22;226;48.606;9.096;2023-07-09T07:04:06;24.50;50.60
480;DHT22;226;48.606;9.096;2023-07-09T07:06:36;24.70;50.80
480;DHT22;226;48.606;9.096;2023-07-09T07:09:04;24.70;49.80
480;DHT22;226;48.606;9.096;2023-07-09T07:11:34;24.90;49.70
480;DHT22;226;48.606;9.096;2023-07-09T07:14:02;25.20;50.20
480;DHT22;226;48.606;9.096;2023-07-09T07:16:30;25.20;48.70
480;DHT22;226;48.606;9.096;2023-07-09T07:18:59;25.40;47.60
480;DHT22;226;48.606;9.096;2023-07-09T07:21:27;25.30;46.80
480;DHT22;226;48.606;9.096;2023-07-09T07:23:55;25.40;46.60
480;DHT22;226;48.606;9.096;2023-07-09T07:26:23;25.60;46.80
480;DHT22;226;48.606;9.096;2023-07-09T07:28:53;25.90;47.40
480;DHT22;226;48.606;9.096;2023-07-09T07:31:21;25.80;45.10
480;DHT22;226;48.606;9.096;2023-07-09T07:33:51;25.80;45.00
480;DHT22;226;48.606;9.096;2023-07-09T07:36:19;26.00;44.80
480;DHT22;226;48.606;9.096;2023-07-09T07:38:56;26.20;44.80
480;DHT22;226;48.606;9.096;2023-07-09T07:41:25;26.10;44.00
480;DHT22;226;48.606;9.096;2023-07-09T07:46:23;26.30;41.20
480;DHT22;226;48.606;9.096;2023-07-09T07:48:51;26.30;43.00
480;DHT22;226;48.606;9.096;2023-07-09T07:51:20;26.60;44.00
480;DHT22;226;48.606;9.096;2023-07-09T07:53:49;26.60;44.00
480;DHT22;226;48.606;9.096;2023-07-09T07:56:17;26.80;43.10
480;DHT22;226;48.606;9.096;2023-07-09T07:58:45;26.80;40.60
480;DHT22;226;48.606;9.096;2023-07-09T08:01:15;26.90;39.50
480;DHT22;226;48.606;9.096;2023-07-09T08:03:43;27.20;40.80
480;DHT22;226;48.606;9.096;2023-07-09T08:06:11;27.30;39.30
480;DHT22;226;48.606;9.096;2023-07-09T08:08:39;27.20;37.90
480;DHT22;226;48.606;9.096;2023-07-09T08:11:09;27.20;36.80
480;DHT22;226;48.606;9.096;2023-07-09T08:13:38;27.20;36.80
480;DHT22;226;48.606;9.096;2023-07-09T08:16:07;27.40;36.60
480;DHT22;226;48.606;9.096;2023-07-09T08:18:39;27.60;35.60
480;DHT22;226;48.606;9.096;2023-07-09T08:21:07;27.60;34.30
480;DHT22;226;48.606;9.096;2023-07-09T08:23:36;27.70;34.70
480;DHT22;226;48.606;9.096;2023-07-09T08:26:07;28.00;32.30
480;DHT22;226;48.606;9.096;2023-07-09T08:28:36;28.20;34.20
480;DHT22;226;48.606;9.096;2023-07-09T08:31:05;28.20;34.90
480;DHT22;226;48.606;9.096;2023-07-09T08:33:33;28.30;34.70
480;DHT22;226;48.606;9.096;2023-07-09T08:36:03;28.30;32.50
480;DHT22;226;48.606;9.096;2023-07-09T08:38:32;28.40;32.60
480;DHT22;226;48.606;9.096;2023-07-09T08:41:02;28.80;33.00
480;DHT22;226;48.606;9.096;2023-07-09T08:43:51;28.70;31.50
480;DHT22;226;48.606;9.096;2023-07-09T08:46:29;28.80;30.60
480;DHT22;226;48.606;9.096;2023-07-09T08:49:02;29.20;31.50
480;DHT22;226;48.606;9.096;2023-07-09T08:51:37;29.40;31.10
480;DHT22;226;48.606;9.096;2023-07-09T08:54:12;29.40;31.20
480;DHT22;226;48.606;9.096;2023-07-09T08:56:43;29.20;28.60
480;DHT22;226;48.606;9.096;2023-07-09T08:59:15;29.50;29.20
480;DHT22;226;48.606;9.096;2023-07-09T09:01:49;29.50;27.60
480;DHT22;226;48.606;9.096;2023-07-09T09:04:21;29.60;27.90
480;DHT22;226;48.606;9.096;2023-07-09T09:06:59;29.40;28.10
480;DHT22;226;48.606;9.096;2023-07-09T09:09:35;29.60;27.10
480;DHT22;226;48.606;9.096;2023-07-09T09:12:13;29.50;26.40
480;DHT22;226;48.606;9.096;2023-07-09T09:14:44;29.50;26.30
480;DHT22;226;48.606;9.096;2023-07-09T09:17:17;29.80;25.80
480;DHT22;226;48.606;9.096;2023-07-09T09:19:48;29.90;25.40
480;DHT22;226;48.606;9.096;2023-07-09T09:22:22;29.90;25.70
480;DHT22;226;48.606;9.096;2023-07-09T09:24:57;29.90;25.40
480;DHT22;226;48.606;9.096;2023-07-09T09:27:26;29.90;24.30
480;DHT22;226;48.606;9.096;2023-07-09T09:29:54;30.10;25.40
480;DHT22;226;48.606;9.096;2023-07-09T09:32:26;30.30;25.60
480;DHT22;226;48.606;9.096;2023-07-09T09:34:55;30.40;25.80
480;DHT22;226;48.606;9.096;2023-07-09T09:37:27;30.30;25.70
480;DHT22;226;48.606;9.096;2023-07-09T09:39:56;30.20;23.20
480;DHT22;226;48.606;9.096;2023-07-09T09:45:14;30.20;21.00
480;DHT22;226;48.606;9.096;2023-07-09T09:47:43;30.50;22.80
480;DHT22;226;48.606;9.096;2023-07-09T09:50:14;30.60;22.90
480;DHT22;226;48.606;9.096;2023-07-09T09:52:45;30.70;21.40
480;DHT22;226;48.606;9.096;2023-07-09T09:55:18;30.80;22.50
480;DHT22;226;48.606;9.096;2023-07-09T09:57:50;30.70;22.00
480;DHT22;226;48.606;9.096;2023-07-09T10:00:22;30.70;22.80
480;DHT22;226;48.606;9.096;2023-07-09T10:02:57;30.70;22.40
480;DHT22;226;48.606;9.096;2023-07-09T10:05:32;30.70;22.60
480;DHT22;226;48.606;9.096;2023-07-09T10:08:07;31.00;22.30
480;DHT22;226;48.606;9.096;2023-07-09T10:10:38;30.80;21.90
480;DHT22;226;48.606;9.096;2023-07-09T10:13:16;31.10;21.60
480;DHT22;226;48.606;9.096;2023-07-09T10:15:59;31.20;22.00
480;DHT22;226;48.606;9.096;2023-07-09T10:18:33;31.40;21.40
480;DHT22;226;48.606;9.096;2023-07-09T10:21:08;31.30;20.20
480;DHT22;226;48.606;9.096;2023-07-09T10:23:48;31.70;20.80
480;DHT22;226;48.606;9.096;2023-07-09T10:26:23;31.90;19.80
480;DHT22;226;48.606;9.096;2023-07-09T10:29:07;32.00;21.00
480;DHT22;226;48.606;9.096;2023-07-09T10:31:44;32.00;16.50
480;DHT22;226;48.606;9.096;2023-07-09T10:34:25;32.10;19.80
480;DHT22;226;48.606;9.096;2023-07-09T10:37:08;32.10;20.70
480;DHT22;226;48.606;9.096;2023-07-09T10:39:50;32.20;20.20
480;DHT22;226;48.606;9.096;2023-07-09T10:42:24;32.30;20.10
480;DHT22;226;48.606;9.096;2023-07-09T10:44:57;32.30;20.30
480;DHT22;226;48.606;9.096;2023-07-09T10:47:32;32.40;20.30
480;DHT22;226;48.606;9.096;2023-07-09T10:50:06;32.40;20.30
480;DHT22;226;48.606;9.096;2023-07-09T10:52:40;32.50;19.30
480;DHT22;226;48.606;9.096;2023-07-09T10:55:16;32.30;18.10
480;DHT22;226;48.606;9.096;2023-07-09T10:57:51;32.50;19.40
480;DHT22;226;48.606;9.096;2023-07-09T11:00:24;32.60;18.70
480;DHT22;226;48.606;9.096;2023-07-09T11:03:02;32.80;18.30
480;DHT22;226;48.606;9.096;2023-07-09T11:05:32;32.60;17.10
480;DHT22;226;48.606;9.096;2023-07-09T11:08:05;32.80;17.30
480;DHT22;226;48.606;9.096;2023-07-09T11:10:37;33.10;18.30
480;DHT22;226;48.606;9.096;2023-07-09T11:13:11;33.30;18.60
480;DHT22;226;48.606;9.096;2023-07-09T11:15:43;33.40;17.50
480;DHT22;226;48.606;9.096;2023-07-09T11:18:21;33.00;17.10
480;DHT22;226;48.606;9.096;2023-07-09T11:20:58;33.30;18.80
480;DHT22;226;48.606;9.096;2023-07-09T11:23:39;33.10;17.70
480;DHT22;226;48.606;9.096;2023-07-09T11:26:15;32.80;18.10
480;DHT22;226;48.606;9.096;2023-07-09T11:28:52;32.80;17.30
480;DHT22;226;48.606;9.096;2023-07-09T11:31:24;33.00;15.80
480;DHT22;226;48.606;9.096;2023-07-09T11:34:07;33.30;15.90
480;DHT22;226;48.606;9.096;2023-07-09T11:36:47;33.40;15.80
480;DHT22;226;48.606;9.096;2023-07-09T11:39:26;34.00;18.80
480;DHT22;226;48.606;9.096;2023-07-09T11:41:56;33.80;18.00
480;DHT22;226;48.606;9.096;2023-07-09T11:44:27;33.50;18.00
480;DHT22;226;48.606;9.096;2023-07-09T11:47:08;33.40;17.90
480;DHT22;226;48.606;9.096;2023-07-09T20:23:19;24.60;43.60
480;DHT22;226;48.606;9.096;2023-07-09T20:25:51;24.40;44.00
480;DHT22;226;48.606;9.096;2023-07-09T20:28:21;24.40;43.80
480;DHT22;226;48.606;9.096;2023-07-09T20:30:51;24.40;43.40
480;DHT22;226;48.606;9.096;2023-07-09T20:33:21;24.30;43.90
480;DHT22;226;48.606;9.096;2023-07-09T20:35:50;24.50;45.30
480;DHT22;226;48.606;9.096;2023-07-09T20:38:21;24.20;44.50
480;DHT22;226;48.606;9.096;2023-07-09T20:40:50;24.00;45.30
480;DHT22;226;48.606;9.096;2023-07-09T20:43:20;23.90;45.80
480;DHT22;226;48.606;9.096;2023-07-09T20:45:49;24.10;46.30
480;DHT22;226;48.606;9.096;2023-07-09T20:48:17;23.00;45.50
480;DHT22;226;48.606;9.096;2023-07-09T20:50:46;23.70;46.90
480;DHT22;226;48.606;9.096;2023-07-09T20:53:16;23.60;46.40
480;DHT22;226;48.606;9.096;2023-07-09T20:55:47;23.70;47.00
480;DHT22;226;48.606;9.096;2023-07-09T20:58:16;23.80;46.50
480;DHT22;226;48.606;9.096;2023-07-09T21:00:47;23.90;46.70
480;DHT22;226;48.606;9.096;2023-07-09T21:03:18;23.80;46.40
